sensor_id;sensor_type;location;lat;lon;timestamp;temperature;humidity
54832;DHT22;40730;53.068;6.572;2023-08-12T00:01:31;19.10;99.90
54832;DHT22;40730;53.068;6.572;2023-08-12T00:03:57;18.80;99.90
54832;DHT22;40730;53.068;6.572;2023-08-12T00:06:23;18.80;99.90
54832;DHT22;40730;53.068;6.572;2023-08-12T00:08:48;18.70;99.90
54832;DHT22;40730;53.068;6.572;2023-08-12T00:11:14;18.70;99.90
54832;DHT22;40730;53.068;6.572;2023-08-12T00:13:40;18.70;99.90
54832;DHT22;40730;53.068;6.572;2023-08-12T00:16:05;18.70;99.90
54832;DHT22;40730;53.068;6.572;2023-08-12T00:18:31;18.70;99.90
54832;DHT22;40730;53.068;6.572;2023-08-12T00:21:07;18.70;99.90
54832;DHT22;40730;53.068;6.572;2023-08-12T00:23:38;18.70;99.90
54832;DHT22;40730;53.068;6.572;2023-08-12T00:26:06;18.70;99.90
54832;DHT22;40730;53.068;6.572;2023-08-12T00:28:32;18.60;99.90
54832;DHT22;40730;53.068;6.572;2023-08-12T00:30:58;18.60;99.90
54832;DHT22;40730;53.068;6.572;2023-08-12T00:33:24;18.60;99.90
54832;DHT22;40730;53.068;6.572;2023-08-12T00:35:49;18.60;99.90
54832;DHT22;40730;53.068;6.572;2023-08-12T00:38:15;18.60;99.90
54832;DHT22;40730;53.068;6.572;2023-08-12T00:40:41;18.70;99.90
54832;DHT22;40730;53.068;6.572;2023-08-12T00:43:06;18.70;99.90
54832;DHT22;40730;53.068;6.572;2023-08-12T00:45:33;18.70;99.90
54832;DHT22;40730;53.068;6.572;2023-08-12T00:47:59;18.70;99.90
54832;DHT22;40730;53.068;6.572;2023-08-12T00:50:25;18.70;99.90
54832;DHT22;40730;53.068;6.572;2023-08-12T00:52:51;18.70;99.90
54832;DHT22;40730;53.068;6.572;2023-08-12T00:55:17;18.70;99.90
54832;DHT22;40730;53.068;6.572;2023-08-12T00:57:43;18.70;99.90
54832;DHT22;40730;53.068;6.572;2023-08-12T01:00:09;18.70;99.90
54832;DHT22;40730;53.068;6.572;2023-08-12T01:02:35;18.70;99.90
54832;DHT22;40730;53.068;6.572;2023-08-12T01:05:01;18.70;99.90
54832;DHT22;40730;53.068;6.572;2023-08-12T01:07:26;18.70;99.90
54832;DHT22;40730;53.068;6.572;2023-08-12T01:09:52;18.70;99.90
54832;DHT22;40730;53.068;6.572;2023-08-12T01:12:24;18.60;99.90
54832;DHT22;40730;53.068;6.572;2023-08-12T01:15:08;18.60;99.90
54832;DHT22;40730;53.068;6.572;2023-08-12T01:17:37;18.60;99.90
54832;DHT22;40730;53.068;6.572;2023-08-12T01:20:05;18.60;99.90
54832;DHT22;40730;53.068;6.572;2023-08-12T01:22:38;18.60;99.90
54832;DHT22;40730;53.068;6.572;2023-08-12T01:25:07;18.60;99.90
54832;DHT22;40730;53.068;6.572;2023-08-12T01:27:35;18.60;99.90
54832;DHT22;40730;53.068;6.572;2023-08-12T01:30:02;18.50;99.90
54832;DHT22;40730;53.068;6.572;2023-08-12T01:32:45;18.60;99.90
54832;DHT22;40730;53.068;6.572;2023-08-12T01:37:44;18.50;99.90
54832;DHT22;40730;53.068;6.572;2023-08-12T01:40:11;18.60;99.90
54832;DHT22;40730;53.068;6.572;2023-08-12T01:42:39;18.50;99.90
54832;DHT22;40730;53.068;6.572;2023-08-12T01:45:05;18.50;99.90
54832;DHT22;40730;53.068;6.572;2023-08-12T01:47:31;18.50;99.90
54832;DHT22;40730;53.068;6.572;2023-08-12T01:49:58;18.50;99.90
54832;DHT22;40730;53.068;6.572;2023-08-12T01:52:24;18.50;99.90
54832;DHT22;40730;53.068;6.572;2023-08-12T01:54:50;18.50;99.90
54832;DHT22;40730;53.068;6.572;2023-08-12T01:57:15;18.50;99.90
54832;DHT22;40730;53.068;6.572;2023-08-12T01:59:41;18.50;99.90
54832;DHT22;40730;53.068;6.572;2023-08-12T02:02:09;18.50;99.90
54832;DHT22;40730;53.068;6.572;2023-08-12T02:04:34;18.50;99.90
54832;DHT22;40730;53.068;6.572;2023-08-12T02:07:02;18.50;99.90
54832;DHT22;40730;53.068;6.572;2023-08-12T02:09:27;18.50;99.90
54832;DHT22;40730;53.068;6.572;2023-08-12T02:11:53;18.50;99.90
54832;DHT22;40730;53.068;6.572;2023-08-12T02:14:18;18.50;99.90
54832;DHT22;40730;53.068;6.572;2023-08-12T02:16:44;18.50;99.90
54832;DHT22;40730;53.068;6.572;2023-08-12T02:19:10;18.50;99.90
54832;DHT22;40730;53.068;6.572;2023-08-12T02:21:35;18.50;99.90
54832;DHT22;40730;53.068;6.572;2023-08-12T02:24:01;18.50;99.90
54832;DHT22;40730;53.068;6.572;2023-08-12T02:26:27;18.50;99.90
54832;DHT22;40730;53.068;6.572;2023-08-12T02:28:52;18.50;99.90
54832;DHT22;40730;53.068;6.572;2023-08-12T02:31:18;18.50;99.90
54832;DHT22;40730;53.068;6.572;2023-08-12T02:33:44;18.60;99.90
54832;DHT22;40730;53.068;6.572;2023-08-12T02:36:09;18.40;99.90
54832;DHT22;40730;53.068;6.572;2023-08-12T02:38:35;18.60;99.90
54832;DHT22;40730;53.068;6.572;2023-08-12T02:41:01;18.60;99.90
54832;DHT22;40730;53.068;6.572;2023-08-12T02:43:26;18.60;99.90
54832;DHT22;40730;53.068;6.572;2023-08-12T02:45:52;18.50;99.90
54832;DHT22;40730;53.068;6.572;2023-08-12T02:48:17;18.50;99.90
54832;DHT22;40730;53.068;6.572;2023-08-12T02:50:43;18.50;99.90
54832;DHT22;40730;53.068;6.572;2023-08-12T02:53:09;18.60;99.90
54832;DHT22;40730;53.068;6.572;2023-08-12T02:55:35;18.50;99.90
54832;DHT22;40730;53.068;6.572;2023-08-12T02:58:02;18.50;99.90
54832;DHT22;40730;53.068;6.572;2023-08-12T03:00:28;18.50;99.90
54832;DHT22;40730;53.068;6.572;2023-08-12T03:02:54;18.50;99.90
54832;DHT22;40730;53.068;6.572;2023-08-12T03:05:21;18.50;99.90
54832;DHT22;40730;53.068;6.572;2023-08-12T03:07:46;18.50;99.90
54832;DHT22;40730;53.068;6.572;2023-08-12T03:10:12;18.50;99.90
54832;DHT22;40730;53.068;6.572;2023-08-12T03:12:38;18.40;99.90
54832;DHT22;40730;53.068;6.572;2023-08-12T03:15:05;18.40;99.90
54832;DHT22;40730;53.068;6.572;2023-08-12T03:17:31;18.40;99.90
54832;DHT22;40730;53.068;6.572;2023-08-12T03:19:57;18.40;99.90
54832;DHT22;40730;53.068;6.572;2023-08-12T03:22:29;18.40;99.90
54832;DHT22;40730;53.068;6.572;2023-08-12T03:24:55;18.40;99.90
54832;DHT22;40730;53.068;6.572;2023-08-12T03:27:20;18.40;99.90
54832;DHT22;40730;53.068;6.572;2023-08-12T03:29:46;18.30;99.90
54832;DHT22;40730;53.068;6.572;2023-08-12T03:32:12;18.30;99.90
54832;DHT22;40730;53.068;6.572;2023-08-12T03:34:37;18.30;99.90
54832;DHT22;40730;53.068;6.572;2023-08-12T03:37:03;18.30;99.90
54832;DHT22;40730;53.068;6.572;2023-08-12T03:39:29;18.30;99.90
54832;DHT22;40730;53.068;6.572;2023-08-12T03:41:54;18.30;99.90
54832;DHT22;40730;53.068;6.572;2023-08-12T03:44:20;18.30;99.90
54832;DHT22;40730;53.068;6.572;2023-08-12T03:46:46;18.40;99.90
54832;DHT22;40730;53.068;6.572;2023-08-12T03:49:11;18.40;99.90
54832;DHT22;40730;53.068;6.572;2023-08-12T03:51:37;18.40;99.90
54832;DHT22;40730;53.068;6.572;2023-08-12T03:54:03;18.40;99.90
54832;DHT22;40730;53.068;6.572;2023-08-12T03:56:29;18.40;99.90
54832;DHT22;40730;53.068;6.572;2023-08-12T03:58:55;18.40;99.90
54832;DHT22;40730;53.068;6.572;2023-08-12T04:01:20;18.50;99.90
54832;DHT22;40730;53.068;6.572;2023-08-12T04:03:47;18.50;99.90
54832;DHT22;40730;53.068;6.572;2023-08-12T04:06:12;18.50;99.90
54832;DHT22;40730;53.068;6.572;2023-08-12T04:08:38;18.50;99.90
54832;DHT22;40730;53.068;6.572;2023-08-12T04:11:04;18.50;99.90
54832;DHT22;40730;53.068;6.572;2023-08-12T04:13:29;18.60;99.90
54832;DHT22;40730;53.068;6.572;2023-08-12T04:15:55;18.50;99.90
54832;DHT22;40730;53.068;6.572;2023-08-12T04:18:21;18.50;99.90
54832;DHT22;40730;53.068;6.572;2023-08-12T04:20:48;18.50;99.90
54832;DHT22;40730;53.068;6.572;2023-08-12T04:23:15;18.50;99.90
54832;DHT22;40730;53.068;6.572;2023-08-12T04:25:43;18.60;99.90
54832;DHT22;40730;53.068;6.572;2023-08-12T04:28:09;18.60;99.90
54832;DHT22;40730;53.068;6.572;2023-08-12T04:30:35;18.60;99.90
54832;DHT22;40730;53.068;6.572;2023-08-12T04:33:01;18.70;99.90
54832;DHT22;40730;53.068;6.572;2023-08-12T04:35:26;18.70;99.90
54832;DHT22;40730;53.068;6.572;2023-08-12T04:37:52;18.70;99.90
54832;DHT22;40730;53.068;6.572;2023-08-12T04:40:17;18.70;99.90
54832;DHT22;40730;53.068;6.572;2023-08-12T04:42:43;18.70;99.90
54832;DHT22;40730;53.068;6.572;2023-08-12T04:45:09;18.70;99.90
54832;DHT22;40730;53.068;6.572;2023-08-12T04:47:35;18.70;99.90
54832;DHT22;40730;53.068;6.572;2023-08-12T04:50:02;18.80;99.90
54832;DHT22;40730;53.068;6.572;2023-08-12T04:52:28;18.80;99.90
54832;DHT22;40730;53.068;6.572;2023-08-12T04:54:53;18.70;99.90
54832;DHT22;40730;53.068;6.572;2023-08-12T04:57:19;18.80;99.90
54832;DHT22;40730;53.068;6.572;2023-08-12T04:59:45;18.80;99.90
54832;DHT22;40730;53.068;6.572;2023-08-12T05:02:10;18.80;99.90
54832;DHT22;40730;53.068;6.572;2023-08-12T05:04:36;18.90;99.90
54832;DHT22;40730;53.068;6.572;2023-08-12T05:07:02;18.90;99.90
54832;DHT22;40730;53.068;6.572;2023-08-12T05:09:28;18.80;99.90
54832;DHT22;40730;53.068;6.572;2023-08-12T05:11:53;18.90;99.90
54832;DHT22;40730;53.068;6.572;2023-08-12T05:14:19;18.90;99.90
54832;DHT22;40730;53.068;6.572;2023-08-12T05:16:44;18.90;99.90
54832;DHT22;40730;53.068;6.572;2023-08-12T05:19:10;18.90;99.90
54832;DHT22;40730;53.068;6.572;2023-08-12T05:21:35;19.00;99.90
54832;DHT22;40730;53.068;6.572;2023-08-12T05:24:01;19.10;99.90
54832;DHT22;40730;53.068;6.572;2023-08-12T05:26:27;19.10;99.90
54832;DHT22;40730;53.068;6.572;2023-08-12T05:28:52;19.10;99.90
54832;DHT22;40730;53.068;6.572;2023-08-12T05:31:18;19.20;99.90
54832;DHT22;40730;53.068;6.572;2023-08-12T05:33:43;19.30;99.90
54832;DHT22;40730;53.068;6.572;2023-08-12T05:36:09;19.30;99.90
54832;DHT22;40730;53.068;6.572;2023-08-12T05:38:35;19.40;99.90
54832;DHT22;40730;53.068;6.572;2023-08-12T05:41:00;19.40;99.90
54832;DHT22;40730;53.068;6.572;2023-08-12T05:43:26;19.50;99.90
54832;DHT22;40730;53.068;6.572;2023-08-12T05:45:51;19.60;99.90
54832;DHT22;40730;53.068;6.572;2023-08-12T05:48:17;19.60;99.90
54832;DHT22;40730;53.068;6.572;2023-08-12T05:50:43;19.70;99.90
54832;DHT22;40730;53.068;6.572;2023-08-12T05:53:09;19.70;99.90
54832;DHT22;40730;53.068;6.572;2023-08-12T05:55:35;19.70;99.90
54832;DHT22;40730;53.068;6.572;2023-08-12T05:58:01;19.80;99.90
54832;DHT22;40730;53.068;6.572;2023-08-12T06:00:26;19.80;99.90
54832;DHT22;40730;53.068;6.572;2023-08-12T06:02:52;19.80;99.90
54832;DHT22;40730;53.068;6.572;2023-08-12T06:05:18;19.90;99.90
54832;DHT22;40730;53.068;6.572;2023-08-12T06:07:43;19.90;99.90
54832;DHT22;40730;53.068;6.572;2023-08-12T06:10:09;20.00;99.90
54832;DHT22;40730;53.068;6.572;2023-08-12T06:12:35;20.10;99.90
54832;DHT22;40730;53.068;6.572;2023-08-12T06:15:01;20.10;99.90
54832;DHT22;40730;53.068;6.572;2023-08-12T06:17:26;20.20;99.90
54832;DHT22;40730;53.068;6.572;2023-08-12T06:19:52;20.20;99.90
54832;DHT22;40730;53.068;6.572;2023-08-12T06:22:17;20.20;99.90
54832;DHT22;40730;53.068;6.572;2023-08-12T06:24:43;20.20;99.90
54832;DHT22;40730;53.068;6.572;2023-08-12T06:27:09;20.20;99.90
54832;DHT22;40730;53.068;6.572;2023-08-12T06:29:35;20.20;99.90
54832;DHT22;40730;53.068;6.572;2023-08-12T06:32:00;20.20;99.90
54832;DHT22;40730;53.068;6.572;2023-08-12T06:34:26;20.20;99.90
54832;DHT22;40730;53.068;6.572;2023-08-12T06:36:51;20.20;99.90
54832;DHT22;40730;53.068;6.572;2023-08-12T06:39:17;20.20;99.90
54832;DHT22;40730;53.068;6.572;2023-08-12T06:41:42;20.20;99.90
54832;DHT22;40730;53.068;6.572;2023-08-12T06:44:08;20.30;99.90
54832;DHT22;40730;53.068;6.572;2023-08-12T06:46:34;20.30;99.90
54832;DHT22;40730;53.068;6.572;2023-08-12T06:48:59;20.30;99.90
54832;DHT22;40730;53.068;6.572;2023-08-12T06:51:25;20.40;99.90
54832;DHT22;40730;53.068;6.572;2023-08-12T06:53:50;20.40;99.90
54832;DHT22;40730;53.068;6.572;2023-08-12T06:56:16;20.40;99.90
54832;DHT22;40730;53.068;6.572;2023-08-12T06:58:42;20.50;99.90
54832;DHT22;40730;53.068;6.572;2023-08-12T07:01:07;20.50;99.90
54832;DHT22;40730;53.068;6.572;2023-08-12T07:03:33;20.50;99.90
54832;DHT22;40730;53.068;6.572;2023-08-12T07:05:58;20.60;99.90
54832;DHT22;40730;53.068;6.572;2023-08-12T07:08:24;20.60;99.90
54832;DHT22;40730;53.068;6.572;2023-08-12T07:10:50;20.50;99.90
54832;DHT22;40730;53.068;6.572;2023-08-12T07:13:15;20.50;99.90
54832;DHT22;40730;53.068;6.572;2023-08-12T07:15:41;20.50;99.90
54832;DHT22;40730;53.068;6.572;2023-08-12T07:18:07;20.50;99.90
54832;DHT22;40730;53.068;6.572;2023-08-12T07:20:32;20.50;99.90
54832;DHT22;40730;53.068;6.572;2023-08-12T07:22:58;20.60;99.90
54832;DHT22;40730;53.068;6.572;2023-08-12T07:25:24;20.60;99.90
54832;DHT22;40730;53.068;6.572;2023-08-12T07:27:49;20.50;99.90
54832;DHT22;40730;53.068;6.572;2023-08-12T07:30:15;20.50;99.90
54832;DHT22;40730;53.068;6.572;2023-08-12T07:32:41;20.50;99.90
54832;DHT22;40730;53.068;6.572;2023-08-12T07:35:06;20.50;99.90
54832;DHT22;40730;53.068;6.572;2023-08-12T07:37:32;20.50;99.90
54832;DHT22;40730;53.068;6.572;2023-08-12T07:39:58;20.50;99.90
54832;DHT22;40730;53.068;6.572;2023-08-12T07:42:24;20.60;99.90
54832;DHT22;40730;53.068;6.572;2023-08-12T07:44:49;20.60;99.90
54832;DHT22;40730;53.068;6.572;2023-08-12T07:47:15;20.60;99.90
54832;DHT22;40730;53.068;6.572;2023-08-12T07:49:42;20.60;99.90
54832;DHT22;40730;53.068;6.572;2023-08-12T07:52:08;20.60;99.90
54832;DHT22;40730;53.068;6.572;2023-08-12T07:54:33;20.60;99.90
54832;DHT22;40730;53.068;6.572;2023-08-12T07:56:59;20.70;99.90
54832;DHT22;40730;53.068;6.572;2023-08-12T07:59:25;20.70;99.90
54832;DHT22;40730;53.068;6.572;2023-08-12T08:01:51;20.70;99.90
54832;DHT22;40730;53.068;6.572;2023-08-12T08:04:17;20.70;99.90
54832;DHT22;40730;53.068;6.572;2023-08-12T08:06:43;20.80;99.90
54832;DHT22;40730;53.068;6.572;2023-08-12T08:09:09;20.70;99.90
54832;DHT22;40730;53.068;6.572;2023-08-12T08:11:34;20.70;99.90
54832;DHT22;40730;53.068;6.572;2023-08-12T08:14:00;20.80;99.90
54832;DHT22;40730;53.068;6.572;2023-08-12T08:16:26;20.80;99.90
54832;DHT22;40730;53.068;6.572;2023-08-12T08:18:52;20.90;99.90
54832;DHT22;40730;53.068;6.572;2023-08-12T08:21:18;20.90;99.90
54832;DHT22;40730;53.068;6.572;2023-08-12T08:23:44;21.00;99.90
54832;DHT22;40730;53.068;6.572;2023-08-12T08:26:10;21.10;99.90
54832;DHT22;40730;53.068;6.572;2023-08-12T08:28:37;21.10;99.90
54832;DHT22;40730;53.068;6.572;2023-08-12T08:31:03;21.10;99.90
54832;DHT22;40730;53.068;6.572;2023-08-12T08:33:29;21.10;99.90
54832;DHT22;40730;53.068;6.572;2023-08-12T08:35:55;21.10;99.90
54832;DHT22;40730;53.068;6.572;2023-08-12T08:38:20;21.10;99.90
54832;DHT22;40730;53.068;6.572;2023-08-12T08:40:48;21.00;99.90
54832;DHT22;40730;53.068;6.572;2023-08-12T08:43:15;21.00;99.90
54832;DHT22;40730;53.068;6.572;2023-08-12T08:45:44;21.00;99.90
54832;DHT22;40730;53.068;6.572;2023-08-12T08:48:11;21.00;99.90
54832;DHT22;40730;53.068;6.572;2023-08-12T08:50:37;21.00;99.90
54832;DHT22;40730;53.068;6.572;2023-08-12T08:53:06;20.90;99.90
54832;DHT22;40730;53.068;6.572;2023-08-12T08:55:32;20.80;99.90
54832;DHT22;40730;53.068;6.572;2023-08-12T08:57:58;20.70;99.90
54832;DHT22;40730;53.068;6.572;2023-08-12T09:00:25;20.70;99.90
54832;DHT22;40730;53.068;6.572;2023-08-12T09:02:51;20.60;99.90
54832;DHT22;40730;53.068;6.572;2023-08-12T09:05:17;20.50;99.90
54832;DHT22;40730;53.068;6.572;2023-08-12T09:07:44;20.50;99.90
54832;DHT22;40730;53.068;6.572;2023-08-12T09:10:10;20.40;99.90
54832;DHT22;40730;53.068;6.572;2023-08-12T09:12:36;20.40;99.90
54832;DHT22;40730;53.068;6.572;2023-08-12T09:15:03;20.30;99.90
54832;DHT22;40730;53.068;6.572;2023-08-12T09:17:30;20.30;99.90
54832;DHT22;40730;53.068;6.572;2023-08-12T09:19:55;20.20;99.90
54832;DHT22;40730;53.068;6.572;2023-08-12T09:22:24;20.20;99.90
54832;DHT22;40730;53.068;6.572;2023-08-12T09:24:56;20.20;99.90
54832;DHT22;40730;53.068;6.572;2023-08-12T09:27:23;20.20;99.90
54832;DHT22;40730;53.068;6.572;2023-08-12T09:29:48;20.10;99.90
54832;DHT22;40730;53.068;6.572;2023-08-12T09:32:19;20.10;99.90
54832;DHT22;40730;53.068;6.572;2023-08-12T09:34:52;20.10;99.90
54832;DHT22;40730;53.068;6.572;2023-08-12T09:37:20;20.10;99.90
54832;DHT22;40730;53.068;6.572;2023-08-12T09:39:47;20.10;99.90
54832;DHT22;40730;53.068;6.572;2023-08-12T09:42:13;20.10;99.90
54832;DHT22;40730;53.068;6.572;2023-08-12T09:44:40;20.10;99.90
54832;DHT22;40730;53.068;6.572;2023-08-12T09:47:07;20.00;99.90
54832;DHT22;40730;53.068;6.572;2023-08-12T09:49:36;20.10;99.90
54832;DHT22;40730;53.068;6.572;2023-08-12T09:52:03;20.10;99.90
54832;DHT22;40730;53.068;6.572;2023-08-12T09:54:31;20.10;99.90
54832;DHT22;40730;53.068;6.572;2023-08-12T09:56:59;20.10;99.90
54832;DHT22;40730;53.068;6.572;2023-08-12T09:59:38;20.10;99.90
54832;DHT22;40730;53.068;6.572;2023-08-12T10:02:06;20.10;99.90
54832;DHT22;40730;53.068;6.572;2023-08-12T10:04:41;20.00;99.90
54832;DHT22;40730;53.068;6.572;2023-08-12T10:07:09;20.00;99.90
54832;DHT22;40730;53.068;6.572;2023-08-12T10:09:36;19.90;99.90
54832;DHT22;40730;53.068;6.572;2023-08-12T10:12:03;19.80;99.90
54832;DHT22;40730;53.068;6.572;2023-08-12T10:14:29;19.70;99.90
54832;DHT22;40730;53.068;6.572;2023-08-12T10:16:55;19.60;99.90
54832;DHT22;40730;53.068;6.572;2023-08-12T10:19:22;19.60;99.90
54832;DHT22;40730;53.068;6.572;2023-08-12T10:21:54;19.40;99.90
54832;DHT22;40730;53.068;6.572;2023-08-12T10:24:23;19.40;99.90
54832;DHT22;40730;53.068;6.572;2023-08-12T10:26:51;19.40;99.90
54832;DHT22;40730;53.068;6.572;2023-08-12T10:29:18;19.40;99.90
54832;DHT22;40730;53.068;6.572;2023-08-12T10:31:44;19.40;99.90
54832;DHT22;40730;53.068;6.572;2023-08-12T10:34:37;19.40;99.90
54832;DHT22;40730;53.068;6.572;2023-08-12T10:37:03;19.40;99.90
54832;DHT22;40730;53.068;6.572;2023-08-12T10:39:33;19.30;99.90
54832;DHT22;40730;53.068;6.572;2023-08-12T10:41:59;19.40;99.90
54832;DHT22;40730;53.068;6.572;2023-08-12T10:44:39;19.40;99.90
54832;DHT22;40730;53.068;6.572;2023-08-12T10:47:10;19.40;99.90
54832;DHT22;40730;53.068;6.572;2023-08-12T10:49:43;19.40;99.90
54832;DHT22;40730;53.068;6.572;2023-08-12T10:52:31;19.50;99.90
54832;DHT22;40730;53.068;6.572;2023-08-12T10:57:42;19.50;99.90
54832;DHT22;40730;53.068;6.572;2023-08-12T11:00:14;19.60;99.90
54832;DHT22;40730;53.068;6.572;2023-08-12T11:02:44;19.60;99.90
54832;DHT22;40730;53.068;6.572;2023-08-12T11:05:11;19.70;99.90
54832;DHT22;40730;53.068;6.572;2023-08-12T11:07:45;19.70;99.90
54832;DHT22;40730;53.068;6.572;2023-08-12T11:10:18;19.80;99.90
54832;DHT22;40730;53.068;6.572;2023-08-12T11:12:55;19.80;99.90
54832;DHT22;40730;53.068;6.572;2023-08-12T11:15:44;19.90;99.90
54832;DHT22;40730;53.068;6.572;2023-08-12T11:18:14;19.90;99.90
54832;DHT22;40730;53.068;6.572;2023-08-12T11:20:42;19.90;99.90
54832;DHT22;40730;53.068;6.572;2023-08-12T11:23:09;19.90;99.90
54832;DHT22;40730;53.068;6.572;2023-08-12T11:25:36;19.90;99.90
54832;DHT22;40730;53.068;6.572;2023-08-12T11:28:04;19.90;99.90
54832;DHT22;40730;53.068;6.572;2023-08-12T11:30:30;19.80;99.90
54832;DHT22;40730;53.068;6.572;2023-08-12T11:32:56;19.80;99.90
54832;DHT22;40730;53.068;6.572;2023-08-12T11:35:23;19.60;99.90
54832;DHT22;40730;53.068;6.572;2023-08-12T11:37:54;19.60;99.90
54832;DHT22;40730;53.068;6.572;2023-08-12T11:40:22;19.50;99.90
54832;DHT22;40730;53.068;6.572;2023-08-12T11:42:49;19.50;99.90
54832;DHT22;40730;53.068;6.572;2023-08-12T11:45:23;19.60;99.90
54832;DHT22;40730;53.068;6.572;2023-08-12T11:47:49;19.70;99.90
54832;DHT22;40730;53.068;6.572;2023-08-12T11:50:22;19.70;99.90
54832;DHT22;40730;53.068;6.572;2023-08-12T11:52:48;19.80;99.90
54832;DHT22;40730;53.068;6.572;2023-08-12T11:55:15;19.80;99.90
54832;DHT22;40730;53.068;6.572;2023-08-12T11:57:41;19.80;99.90
54832;DHT22;40730;53.068;6.572;2023-08-12T12:00:10;19.80;99.90
54832;DHT22;40730;53.068;6.572;2023-08-12T12:02:48;19.70;99.90
54832;DHT22;40730;53.068;6.572;2023-08-12T12:05:14;19.40;99.90
54832;DHT22;40730;53.068;6.572;2023-08-12T12:07:41;19.20;99.90
54832;DHT22;40730;53.068;6.572;2023-08-12T12:10:06;19.10;99.90
54832;DHT22;40730;53.068;6.572;2023-08-12T12:12:36;19.00;99.90
54832;DHT22;40730;53.068;6.572;2023-08-12T12:15:02;18.80;99.90
54832;DHT22;40730;53.068;6.572;2023-08-12T12:17:28;18.70;99.90
54832;DHT22;40730;53.068;6.572;2023-08-12T12:19:58;18.50;99.90
54832;DHT22;40730;53.068;6.572;2023-08-12T12:22:32;18.60;99.90
54832;DHT22;40730;53.068;6.572;2023-08-12T12:25:06;18.60;99.90
54832;DHT22;40730;53.068;6.572;2023-08-12T12:27:32;18.70;99.90
54832;DHT22;40730;53.068;6.572;2023-08-12T12:29:59;18.80;99.90
54832;DHT22;40730;53.068;6.572;2023-08-12T12:32:25;18.90;99.90
54832;DHT22;40730;53.068;6.572;2023-08-12T12:34:51;19.10;99.90
54832;DHT22;40730;53.068;6.572;2023-08-12T12:37:18;19.40;99.90
54832;DHT22;40730;53.068;6.572;2023-08-12T12:39:44;19.50;99.90
54832;DHT22;40730;53.068;6.572;2023-08-12T12:42:10;19.60;99.90
54832;DHT22;40730;53.068;6.572;2023-08-12T12:44:36;19.60;99.90
54832;DHT22;40730;53.068;6.572;2023-08-12T12:47:02;19.70;99.90
54832;DHT22;40730;53.068;6.572;2023-08-12T12:49:28;19.70;99.90
54832;DHT22;40730;53.068;6.572;2023-08-12T12:51:54;20.00;99.90
54832;DHT22;40730;53.068;6.572;2023-08-12T12:54:19;20.30;99.90
54832;DHT22;40730;53.068;6.572;2023-08-12T12:56:45;20.80;99.90
54832;DHT22;40730;53.068;6.572;2023-08-12T12:59:11;21.10;99.90
54832;DHT22;40730;53.068;6.572;2023-08-12T13:01:37;21.40;99.90
54832;DHT22;40730;53.068;6.572;2023-08-12T13:04:02;21.60;99.90
54832;DHT22;40730;53.068;6.572;2023-08-12T13:06:28;22.00;99.90
54832;DHT22;40730;53.068;6.572;2023-08-12T13:08:54;22.80;99.90
54832;DHT22;40730;53.068;6.572;2023-08-12T13:11:20;23.50;99.90
54832;DHT22;40730;53.068;6.572;2023-08-12T13:13:45;23.60;99.90
54832;DHT22;40730;53.068;6.572;2023-08-12T13:16:11;23.60;99.90
54832;DHT22;40730;53.068;6.572;2023-08-12T13:18:37;23.90;99.90
54832;DHT22;40730;53.068;6.572;2023-08-12T13:21:02;24.30;99.90
54832;DHT22;40730;53.068;6.572;2023-08-12T13:23:28;24.60;99.90
54832;DHT22;40730;53.068;6.572;2023-08-12T13:25:54;25.00;99.90
54832;DHT22;40730;53.068;6.572;2023-08-12T13:28:19;25.20;99.90
54832;DHT22;40730;53.068;6.572;2023-08-12T13:30:45;25.30;99.90
54832;DHT22;40730;53.068;6.572;2023-08-12T13:33:11;25.00;99.90
54832;DHT22;40730;53.068;6.572;2023-08-12T13:35:37;24.70;99.90
54832;DHT22;40730;53.068;6.572;2023-08-12T13:38:03;24.30;99.90
54832;DHT22;40730;53.068;6.572;2023-08-12T13:40:29;23.70;99.90
54832;DHT22;40730;53.068;6.572;2023-08-12T13:42:55;23.30;99.90
54832;DHT22;40730;53.068;6.572;2023-08-12T13:45:20;23.00;99.90
54832;DHT22;40730;53.068;6.572;2023-08-12T13:47:46;22.70;99.90
54832;DHT22;40730;53.068;6.572;2023-08-12T13:50:12;22.60;99.90
54832;DHT22;40730;53.068;6.572;2023-08-12T13:52:39;22.50;99.90
54832;DHT22;40730;53.068;6.572;2023-08-12T13:55:05;22.40;99.90
54832;DHT22;40730;53.068;6.572;2023-08-12T13:57:31;22.30;99.90
54832;DHT22;40730;53.068;6.572;2023-08-12T13:59:56;22.10;99.90
54832;DHT22;40730;53.068;6.572;2023-08-12T14:02:22;22.00;99.90
54832;DHT22;40730;53.068;6.572;2023-08-12T14:04:48;21.90;99.90
54832;DHT22;40730;53.068;6.572;2023-08-12T14:07:14;21.90;99.90
54832;DHT22;40730;53.068;6.572;2023-08-12T14:09:41;21.90;99.90
54832;DHT22;40730;53.068;6.572;2023-08-12T14:12:06;21.90;99.90
54832;DHT22;40730;53.068;6.572;2023-08-12T14:14:32;22.30;99.90
54832;DHT22;40730;53.068;6.572;2023-08-12T14:16:57;22.70;99.90
54832;DHT22;40730;53.068;6.572;2023-08-12T14:19:23;22.90;99.90
54832;DHT22;40730;53.068;6.572;2023-08-12T14:21:49;22.90;99.90
54832;DHT22;40730;53.068;6.572;2023-08-12T14:24:14;22.70;99.90
54832;DHT22;40730;53.068;6.572;2023-08-12T14:26:40;22.60;99.90
54832;DHT22;40730;53.068;6.572;2023-08-12T14:29:06;22.40;99.90
54832;DHT22;40730;53.068;6.572;2023-08-12T14:31:32;22.30;99.90
54832;DHT22;40730;53.068;6.572;2023-08-12T14:33:58;22.20;99.90
54832;DHT22;40730;53.068;6.572;2023-08-12T14:36:24;22.20;99.90
54832;DHT22;40730;53.068;6.572;2023-08-12T14:38:52;22.20;99.90
54832;DHT22;40730;53.068;6.572;2023-08-12T14:41:18;22.20;99.90
54832;DHT22;40730;53.068;6.572;2023-08-12T14:43:44;22.20;99.90
54832;DHT22;40730;53.068;6.572;2023-08-12T14:46:09;22.40;99.90
54832;DHT22;40730;53.068;6.572;2023-08-12T14:48:35;22.50;99.90
54832;DHT22;40730;53.068;6.572;2023-08-12T14:51:01;22.60;99.90
54832;DHT22;40730;53.068;6.572;2023-08-12T14:53:27;22.60;99.90
54832;DHT22;40730;53.068;6.572;2023-08-12T14:55:53;22.40;99.90
54832;DHT22;40730;53.068;6.572;2023-08-12T14:58:19;22.30;99.90
54832;DHT22;40730;53.068;6.572;2023-08-12T15:00:46;22.10;99.90
54832;DHT22;40730;53.068;6.572;2023-08-12T15:03:12;21.90;99.90
54832;DHT22;40730;53.068;6.572;2023-08-12T15:05:40;21.80;99.90
54832;DHT22;40730;53.068;6.572;2023-08-12T15:08:06;21.70;99.90
54832;DHT22;40730;53.068;6.572;2023-08-12T15:10:32;21.70;99.90
54832;DHT22;40730;53.068;6.572;2023-08-12T15:12:57;21.70;99.90
54832;DHT22;40730;53.068;6.572;2023-08-12T15:15:23;21.80;99.90
54832;DHT22;40730;53.068;6.572;2023-08-12T15:17:49;21.80;99.90
54832;DHT22;40730;53.068;6.572;2023-08-12T15:20:15;21.80;99.90
54832;DHT22;40730;53.068;6.572;2023-08-12T15:22:40;21.70;99.90
54832;DHT22;40730;53.068;6.572;2023-08-12T15:25:06;21.60;99.90
54832;DHT22;40730;53.068;6.572;2023-08-12T15:27:32;21.50;99.90
54832;DHT22;40730;53.068;6.572;2023-08-12T15:29:58;21.60;99.90
54832;DHT22;40730;53.068;6.572;2023-08-12T15:32:26;21.70;99.90